sensor_id;sensor_type;location;lat;lon;timestamp;pressure;altitude;pressure_sealevel;temperature;humidity
15294;BME280;7748;52.474;13.454;2022-12-18T00:01:56;102871.03;;;-4.13;100.00
15294;BME280;7748;52.474;13.454;2022-12-18T00:04:26;102877.03;;;-4.25;100.00
15294;BME280;7748;52.474;13.454;2022-12-18T00:06:54;102881.41;;;-4.24;100.00
15294;BME280;7748;52.474;13.454;2022-12-18T00:09:22;102887.19;;;-4.25;100.00
15294;BME280;7748;52.474;13.454;2022-12-18T00:12:04;102885.06;;;-4.22;100.00
15294;BME280;7748;52.474;13.454;2022-12-18T00:14:41;102890.38;;;-4.13;100.00
15294;BME280;7748;52.474;13.454;2022-12-18T00:17:10;102893.09;;;-4.52;100.00
15294;BME280;7748;52.474;13.454;2022-12-18T00:19:38;102889.06;;;-4.57;100.00
15294;BME280;7748;52.474;13.454;2022-12-18T00:22:06;102887.72;;;-4.48;100.00
15294;BME280;7748;52.474;13.454;2022-12-18T00:24:34;102884.00;;;-4.57;100.00
15294;BME280;7748;52.474;13.454;2022-12-18T00:27:02;102881.53;;;-4.50;100.00
15294;BME280;7748;52.474;13.454;2022-12-18T00:29:30;102882.81;;;-4.66;100.00
15294;BME280;7748;52.474;13.454;2022-12-18T00:31:58;102878.72;;;-4.71;100.00
15294;BME280;7748;52.474;13.454;2022-12-18T00:34:27;102880.34;;;-4.59;100.00
15294;BME280;7748;52.474;13.454;2022-12-18T00:36:55;102879.06;;;-4.42;100.00
15294;BME280;7748;52.474;13.454;2022-12-18T00:39:23;102881.78;;;-4.41;100.00
15294;BME280;7748;52.474;13.454;2022-12-18T00:41:50;102883.09;;;-4.37;100.00
15294;BME280;7748;52.474;13.454;2022-12-18T00:44:35;102877.09;;;-4.58;100.00
15294;BME280;7748;52.474;13.454;2022-12-18T00:47:03;102878.84;;;-4.44;100.00
15294;BME280;7748;52.474;13.454;2022-12-18T00:49:33;102868.84;;;-4.50;100.00
15294;BME280;7748;52.474;13.454;2022-12-18T00:52:01;102880.34;;;-4.59;100.00
15294;BME280;7748;52.474;13.454;2022-12-18T00:54:29;102870.47;;;-4.50;100.00
15294;BME280;7748;52.474;13.454;2022-12-18T00:56:56;102870.34;;;-4.45;100.00
15294;BME280;7748;52.474;13.454;2022-12-18T00:59:24;102873.13;;;-4.89;100.00
15294;BME280;7748;52.474;13.454;2022-12-18T01:01:52;102873.66;;;-4.71;100.00
15294;BME280;7748;52.474;13.454;2022-12-18T01:04:20;102868.72;;;-4.77;100.00
15294;BME280;7748;52.474;13.454;2022-12-18T01:06:50;102867.66;;;-4.92;100.00
15294;BME280;7748;52.474;13.454;2022-12-18T01:09:17;102876.81;;;-5.12;100.00
15294;BME280;7748;52.474;13.454;2022-12-18T01:11:45;102871.63;;;-5.07;100.00
15294;BME280;7748;52.474;13.454;2022-12-18T01:14:13;102872.22;;;-4.89;100.00
15294;BME280;7748;52.474;13.454;2022-12-18T01:16:41;102880.06;;;-4.80;100.00
15294;BME280;7748;52.474;13.454;2022-12-18T01:19:09;102885.88;;;-4.81;100.00
15294;BME280;7748;52.474;13.454;2022-12-18T01:21:37;102891.41;;;-4.71;100.00
15294;BME280;7748;52.474;13.454;2022-12-18T01:24:06;102888.94;;;-4.97;100.00
15294;BME280;7748;52.474;13.454;2022-12-18T01:26:34;102895.75;;;-5.03;100.00
15294;BME280;7748;52.474;13.454;2022-12-18T01:29:02;102907.31;;;-5.05;100.00
15294;BME280;7748;52.474;13.454;2022-12-18T01:31:32;102908.94;;;-5.18;100.00
15294;BME280;7748;52.474;13.454;2022-12-18T01:34:01;102906.50;;;-4.98;100.00
15294;BME280;7748;52.474;13.454;2022-12-18T01:36:30;102902.88;;;-4.80;100.00
15294;BME280;7748;52.474;13.454;2022-12-18T01:38:59;102907.72;;;-5.15;100.00
15294;BME280;7748;52.474;13.454;2022-12-18T01:41:30;102906.19;;;-5.07;100.00
15294;BME280;7748;52.474;13.454;2022-12-18T01:47:15;102903.88;;;-5.05;100.00
15294;BME280;7748;52.474;13.454;2022-12-18T01:49:46;102908.22;;;-4.92;100.00
15294;BME280;7748;52.474;13.454;2022-12-18T01:52:14;102911.47;;;-5.18;100.00
15294;BME280;7748;52.474;13.454;2022-12-18T01:54:43;102902.44;;;-5.03;100.00
15294;BME280;7748;52.474;13.454;2022-12-18T01:57:13;102904.13;;;-4.97;100.00
15294;BME280;7748;52.474;13.454;2022-12-18T01:59:42;102912.97;;;-5.00;100.00
15294;BME280;7748;52.474;13.454;2022-12-18T02:02:13;102918.81;;;-4.81;100.00
15294;BME280;7748;52.474;13.454;2022-12-18T02:04:41;102916.41;;;-5.00;100.00
15294;BME280;7748;52.474;13.454;2022-12-18T02:07:20;102911.13;;;-4.89;100.00
15294;BME280;7748;52.474;13.454;2022-12-18T02:09:54;102910.75;;;-4.92;100.00
15294;BME280;7748;52.474;13.454;2022-12-18T02:12:32;102913.09;;;-5.19;100.00
15294;BME280;7748;52.474;13.454;2022-12-18T02:15:13;102914.81;;;-5.12;100.00
15294;BME280;7748;52.474;13.454;2022-12-18T02:17:46;102915.28;;;-5.02;100.00
15294;BME280;7748;52.474;13.454;2022-12-18T02:20:18;102914.81;;;-5.12;100.00
15294;BME280;7748;52.474;13.454;2022-12-18T02:23:01;102921.38;;;-5.33;100.00
15294;BME280;7748;52.474;13.454;2022-12-18T02:26:04;102920.88;;;-5.04;100.00
15294;BME280;7748;52.474;13.454;2022-12-18T02:28:35;102911.66;;;-4.91;100.00
15294;BME280;7748;52.474;13.454;2022-12-18T02:31:09;102914.69;;;-4.94;100.00
15294;BME280;7748;52.474;13.454;2022-12-18T02:33:40;102918.09;;;-4.80;100.00
15294;BME280;7748;52.474;13.454;2022-12-18T02:36:10;102923.69;;;-4.83;100.00
15294;BME280;7748;52.474;13.454;2022-12-18T02:38:39;102929.19;;;-4.93;100.00
15294;BME280;7748;52.474;13.454;2022-12-18T02:41:09;102934.66;;;-5.02;100.00
15294;BME280;7748;52.474;13.454;2022-12-18T02:43:37;102943.25;;;-4.95;100.00
15294;BME280;7748;52.474;13.454;2022-12-18T02:46:25;102937.81;;;-5.23;100.00
15294;BME280;7748;52.474;13.454;2022-12-18T02:49:00;102938.91;;;-4.96;100.00
15294;BME280;7748;52.474;13.454;2022-12-18T02:51:32;102945.09;;;-4.94;100.00
15294;BME280;7748;52.474;13.454;2022-12-18T02:54:10;102948.75;;;-4.92;100.00
15294;BME280;7748;52.474;13.454;2022-12-18T02:56:48;102946.50;;;-4.83;100.00
15294;BME280;7748;52.474;13.454;2022-12-18T02:59:21;102941.44;;;-4.96;100.00
15294;BME280;7748;52.474;13.454;2022-12-18T03:01:52;102938.91;;;-5.09;100.00
15294;BME280;7748;52.474;13.454;2022-12-18T03:04:26;102938.09;;;-5.02;100.00
15294;BME280;7748;52.474;13.454;2022-12-18T03:06:58;102933.75;;;-5.03;100.00
15294;BME280;7748;52.474;13.454;2022-12-18T03:09:33;102939.72;;;-5.02;100.00
15294;BME280;7748;52.474;13.454;2022-12-18T03:12:09;102948.06;;;-5.03;100.00
15294;BME280;7748;52.474;13.454;2022-12-18T03:14:56;102945.88;;;-4.88;100.00
15294;BME280;7748;52.474;13.454;2022-12-18T03:17:27;102945.69;;;-4.76;100.00
15294;BME280;7748;52.474;13.454;2022-12-18T03:20:01;102939.59;;;-4.97;100.00
15294;BME280;7748;52.474;13.454;2022-12-18T03:22:32;102945.00;;;-5.01;100.00
15294;BME280;7748;52.474;13.454;2022-12-18T03:25:03;102956.00;;;-5.39;100.00
15294;BME280;7748;52.474;13.454;2022-12-18T03:27:36;102957.88;;;-5.38;100.00
15294;BME280;7748;52.474;13.454;2022-12-18T03:30:07;102956.03;;;-5.26;100.00
15294;BME280;7748;52.474;13.454;2022-12-18T03:32:40;102961.63;;;-5.29;100.00
15294;BME280;7748;52.474;13.454;2022-12-18T03:35:11;102958.97;;;-5.36;100.00
15294;BME280;7748;52.474;13.454;2022-12-18T03:37:40;102957.16;;;-5.24;100.00
15294;BME280;7748;52.474;13.454;2022-12-18T03:40:09;102949.66;;;-5.17;100.00
15294;BME280;7748;52.474;13.454;2022-12-18T03:42:44;102947.75;;;-5.12;100.00
15294;BME280;7748;52.474;13.454;2022-12-18T03:45:19;102944.50;;;-5.11;100.00
15294;BME280;7748;52.474;13.454;2022-12-18T03:47:59;102940.63;;;-5.02;100.00
15294;BME280;7748;52.474;13.454;2022-12-18T03:50:37;102945.00;;;-5.14;100.00
15294;BME280;7748;52.474;13.454;2022-12-18T03:53:17;102951.78;;;-5.07;100.00
15294;BME280;7748;52.474;13.454;2022-12-18T03:55:50;102964.25;;;-5.21;100.00
15294;BME280;7748;52.474;13.454;2022-12-18T03:58:24;102953.41;;;-5.20;100.00
15294;BME280;7748;52.474;13.454;2022-12-18T04:00:55;102958.66;;;-5.06;100.00
15294;BME280;7748;52.474;13.454;2022-12-18T04:03:25;102964.94;;;-5.22;100.00
15294;BME280;7748;52.474;13.454;2022-12-18T04:05:54;102955.06;;;-5.08;100.00
15294;BME280;7748;52.474;13.454;2022-12-18T04:08:24;102950.38;;;-5.05;100.00
15294;BME280;7748;52.474;13.454;2022-12-18T04:10:52;102943.06;;;-5.09;100.00
15294;BME280;7748;52.474;13.454;2022-12-18T04:13:28;102946.13;;;-4.99;100.00
15294;BME280;7748;52.474;13.454;2022-12-18T04:15:56;102946.53;;;-4.96;100.00
15294;BME280;7748;52.474;13.454;2022-12-18T04:18:24;102953.22;;;-5.09;100.00
15294;BME280;7748;52.474;13.454;2022-12-18T04:20:52;102961.72;;;-5.21;100.00
15294;BME280;7748;52.474;13.454;2022-12-18T04:23:21;102967.81;;;-5.26;100.00
15294;BME280;7748;52.474;13.454;2022-12-18T04:25:49;102973.66;;;-5.20;100.00
15294;BME280;7748;52.474;13.454;2022-12-18T04:28:17;102980.06;;;-5.17;100.00
15294;BME280;7748;52.474;13.454;2022-12-18T04:30:49;102972.56;;;-5.10;100.00
15294;BME280;7748;52.474;13.454;2022-12-18T04:33:17;102971.22;;;-5.13;100.00
15294;BME280;7748;52.474;13.454;2022-12-18T04:35:45;102970.94;;;-5.22;100.00
15294;BME280;7748;52.474;13.454;2022-12-18T04:38:13;102962.03;;;-5.13;100.00
15294;BME280;7748;52.474;13.454;2022-12-18T04:40:42;102976.34;;;-5.57;100.00
15294;BME280;7748;52.474;13.454;2022-12-18T04:43:10;102978.53;;;-5.35;100.00
15294;BME280;7748;52.474;13.454;2022-12-18T04:45:39;102982.38;;;-5.31;100.00
15294;BME280;7748;52.474;13.454;2022-12-18T04:48:08;102984.63;;;-5.14;100.00
15294;BME280;7748;52.474;13.454;2022-12-18T04:50:36;102976.91;;;-5.21;100.00
15294;BME280;7748;52.474;13.454;2022-12-18T04:53:04;102982.00;;;-5.21;100.00
15294;BME280;7748;52.474;13.454;2022-12-18T04:55:32;102986.66;;;-5.12;100.00
15294;BME280;7748;52.474;13.454;2022-12-18T04:58:00;102985.44;;;-5.34;100.00
15294;BME280;7748;52.474;13.454;2022-12-18T05:00:27;102984.41;;;-5.29;100.00
15294;BME280;7748;52.474;13.454;2022-12-18T05:02:55;102975.81;;;-5.23;100.00
15294;BME280;7748;52.474;13.454;2022-12-18T05:05:25;102983.41;;;-5.23;100.00
15294;BME280;7748;52.474;13.454;2022-12-18T05:07:52;102983.81;;;-5.33;100.00
15294;BME280;7748;52.474;13.454;2022-12-18T05:10:20;102979.75;;;-5.25;100.00
15294;BME280;7748;52.474;13.454;2022-12-18T05:12:48;102983.19;;;-5.38;100.00
15294;BME280;7748;52.474;13.454;2022-12-18T05:15:28;102993.31;;;-5.38;100.00
15294;BME280;7748;52.474;13.454;2022-12-18T05:17:57;102990.91;;;-5.31;100.00
15294;BME280;7748;52.474;13.454;2022-12-18T05:20:27;102998.09;;;-5.21;100.00
15294;BME280;7748;52.474;13.454;2022-12-18T05:22:56;102996.78;;;-5.24;100.00
15294;BME280;7748;52.474;13.454;2022-12-18T05:25:24;103001.84;;;-5.24;100.00
15294;BME280;7748;52.474;13.454;2022-12-18T05:27:52;103005.47;;;-5.22;100.00
15294;BME280;7748;52.474;13.454;2022-12-18T05:30:19;103006.63;;;-5.08;100.00
15294;BME280;7748;52.474;13.454;2022-12-18T05:32:49;103006.41;;;-5.09;100.00
15294;BME280;7748;52.474;13.454;2022-12-18T05:35:17;103018.91;;;-5.42;100.00
15294;BME280;7748;52.474;13.454;2022-12-18T05:37:46;103014.16;;;-5.46;100.00
15294;BME280;7748;52.474;13.454;2022-12-18T05:40:14;103015.22;;;-5.25;100.00
15294;BME280;7748;52.474;13.454;2022-12-18T05:42:42;103020.03;;;-5.40;100.00
15294;BME280;7748;52.474;13.454;2022-12-18T05:45:10;103017.91;;;-5.37;100.00
15294;BME280;7748;52.474;13.454;2022-12-18T05:47:37;103023.69;;;-5.38;100.00
15294;BME280;7748;52.474;13.454;2022-12-18T05:50:07;103028.78;;;-5.38;100.00
15294;BME280;7748;52.474;13.454;2022-12-18T05:52:35;103027.69;;;-5.14;100.00
15294;BME280;7748;52.474;13.454;2022-12-18T05:55:04;103022.53;;;-5.21;100.00
15294;BME280;7748;52.474;13.454;2022-12-18T05:57:32;103018.47;;;-5.14;100.00
15294;BME280;7748;52.474;13.454;2022-12-18T06:00:00;103007.94;;;-5.04;100.00
15294;BME280;7748;52.474;13.454;2022-12-18T06:02:28;103024.75;;;-5.17;100.00
15294;BME280;7748;52.474;13.454;2022-12-18T06:04:56;103030.22;;;-5.14;100.00
15294;BME280;7748;52.474;13.454;2022-12-18T06:07:24;103031.81;;;-5.28;100.00
15294;BME280;7748;52.474;13.454;2022-12-18T06:09:52;103032.75;;;-5.14;100.00
15294;BME280;7748;52.474;13.454;2022-12-18T06:12:21;103038.44;;;-5.10;100.00
15294;BME280;7748;52.474;13.454;2022-12-18T06:14:49;103035.81;;;-5.17;100.00
15294;BME280;7748;52.474;13.454;2022-12-18T06:17:17;103031.25;;;-5.07;100.00
15294;BME280;7748;52.474;13.454;2022-12-18T06:19:44;103041.66;;;-5.23;100.00
15294;BME280;7748;52.474;13.454;2022-12-18T06:22:12;103041.47;;;-5.12;100.00
15294;BME280;7748;52.474;13.454;2022-12-18T06:24:40;103051.94;;;-4.91;100.00
15294;BME280;7748;52.474;13.454;2022-12-18T06:27:08;103060.13;;;-5.12;100.00
15294;BME280;7748;52.474;13.454;2022-12-18T06:29:37;103051.63;;;-5.12;100.00
15294;BME280;7748;52.474;13.454;2022-12-18T06:32:05;103059.38;;;-5.23;100.00
15294;BME280;7748;52.474;13.454;2022-12-18T06:34:34;103055.38;;;-5.03;100.00
15294;BME280;7748;52.474;13.454;2022-12-18T06:37:04;103056.06;;;-5.04;100.00
15294;BME280;7748;52.474;13.454;2022-12-18T06:39:32;103060.84;;;-5.13;100.00
15294;BME280;7748;52.474;13.454;2022-12-18T06:42:00;103068.16;;;-4.96;100.00
15294;BME280;7748;52.474;13.454;2022-12-18T06:44:28;103073.50;;;-5.13;100.00
15294;BME280;7748;52.474;13.454;2022-12-18T06:46:57;103073.69;;;-5.24;100.00
15294;BME280;7748;52.474;13.454;2022-12-18T06:49:25;103075.31;;;-5.12;100.00
15294;BME280;7748;52.474;13.454;2022-12-18T06:51:56;103081.66;;;-5.34;100.00
15294;BME280;7748;52.474;13.454;2022-12-18T06:54:24;103085.19;;;-5.57;100.00
15294;BME280;7748;52.474;13.454;2022-12-18T06:56:51;103093.63;;;-5.51;100.00
15294;BME280;7748;52.474;13.454;2022-12-18T06:59:22;103106.16;;;-5.40;100.00
15294;BME280;7748;52.474;13.454;2022-12-18T07:01:49;103105.44;;;-5.57;100.00
15294;BME280;7748;52.474;13.454;2022-12-18T07:04:19;103110.38;;;-5.64;100.00
15294;BME280;7748;52.474;13.454;2022-12-18T07:06:47;103111.22;;;-5.40;100.00
15294;BME280;7748;52.474;13.454;2022-12-18T07:09:15;103093.31;;;-5.29;100.00
15294;BME280;7748;52.474;13.454;2022-12-18T07:11:42;103081.47;;;-5.22;100.00
15294;BME280;7748;52.474;13.454;2022-12-18T07:14:10;103076.84;;;-5.19;100.00
15294;BME280;7748;52.474;13.454;2022-12-18T07:16:38;103084.94;;;-5.09;100.00
15294;BME280;7748;52.474;13.454;2022-12-18T07:19:07;103092.19;;;-5.31;100.00
15294;BME280;7748;52.474;13.454;2022-12-18T07:21:36;103092.44;;;-5.16;100.00
15294;BME280;7748;52.474;13.454;2022-12-18T07:24:05;103097.22;;;-5.12;100.00
15294;BME280;7748;52.474;13.454;2022-12-18T07:26:33;103099.59;;;-5.01;100.00
15294;BME280;7748;52.474;13.454;2022-12-18T07:29:01;103107.25;;;-5.19;100.00
15294;BME280;7748;52.474;13.454;2022-12-18T07:31:29;103106.63;;;-5.11;100.00
15294;BME280;7748;52.474;13.454;2022-12-18T07:33:57;103091.53;;;-5.04;100.00
15294;BME280;7748;52.474;13.454;2022-12-18T07:36:25;103086.25;;;-5.18;100.00
15294;BME280;7748;52.474;13.454;2022-12-18T07:38:54;103102.00;;;-5.08;100.00
15294;BME280;7748;52.474;13.454;2022-12-18T07:41:22;103095.19;;;-5.02;100.00
15294;BME280;7748;52.474;13.454;2022-12-18T07:43:50;103095.19;;;-5.02;100.00
15294;BME280;7748;52.474;13.454;2022-12-18T07:46:19;103091.53;;;-5.17;100.00
15294;BME280;7748;52.474;13.454;2022-12-18T07:48:47;103090.94;;;-5.09;100.00
15294;BME280;7748;52.474;13.454;2022-12-18T07:51:17;103099.38;;;-5.02;100.00
15294;BME280;7748;52.474;13.454;2022-12-18T07:53:45;103097.38;;;-5.23;100.00
15294;BME280;7748;52.474;13.454;2022-12-18T07:56:19;103100.38;;;-4.95;100.00
15294;BME280;7748;52.474;13.454;2022-12-18T07:58:54;103097.16;;;-5.38;100.00
15294;BME280;7748;52.474;13.454;2022-12-18T08:01:22;103082.69;;;-5.13;100.00
15294;BME280;7748;52.474;13.454;2022-12-18T08:03:50;103099.06;;;-5.30;100.00
15294;BME280;7748;52.474;13.454;2022-12-18T08:06:21;103092.84;;;-5.13;100.00
15294;BME280;7748;52.474;13.454;2022-12-18T08:08:51;103104.38;;;-5.15;100.00
15294;BME280;7748;52.474;13.454;2022-12-18T08:11:21;103103.97;;;-5.18;100.00
15294;BME280;7748;52.474;13.454;2022-12-18T08:13:49;103099.75;;;-5.12;100.00
15294;BME280;7748;52.474;13.454;2022-12-18T08:16:18;103112.63;;;-5.42;100.00
15294;BME280;7748;52.474;13.454;2022-12-18T08:18:47;103099.13;;;-5.66;100.00
15294;BME280;7748;52.474;13.454;2022-12-18T08:21:18;103098.78;;;-5.38;100.00
15294;BME280;7748;52.474;13.454;2022-12-18T08:23:49;103107.16;;;-5.45;100.00
15294;BME280;7748;52.474;13.454;2022-12-18T08:26:20;103107.19;;;-5.32;100.00
15294;BME280;7748;52.474;13.454;2022-12-18T08:28:59;103115.97;;;-5.04;100.00
15294;BME280;7748;52.474;13.454;2022-12-18T08:31:28;103117.72;;;-4.85;100.00
15294;BME280;7748;52.474;13.454;2022-12-18T08:34:00;103109.81;;;-4.94;100.00
15294;BME280;7748;52.474;13.454;2022-12-18T08:36:29;103117.94;;;-5.28;100.00
15294;BME280;7748;52.474;13.454;2022-12-18T08:38:57;103112.53;;;-5.05;100.00
15294;BME280;7748;52.474;13.454;2022-12-18T08:41:27;103116.41;;;-4.89;100.00
15294;BME280;7748;52.474;13.454;2022-12-18T08:43:56;103118.56;;;-4.79;100.00
15294;BME280;7748;52.474;13.454;2022-12-18T08:46:42;103129.03;;;-4.57;100.00
15294;BME280;7748;52.474;13.454;2022-12-18T08:49:11;103126.59;;;-4.63;100.00
15294;BME280;7748;52.474;13.454;2022-12-18T08:51:40;103131.38;;;-4.59;100.00
15294;BME280;7748;52.474;13.454;2022-12-18T08:54:12;103137.53;;;-4.70;100.00
15294;BME280;7748;52.474;13.454;2022-12-18T08:56:41;103130.53;;;-4.65;100.00
15294;BME280;7748;52.474;13.454;2022-12-18T08:59:19;103138.97;;;-4.59;100.00
15294;BME280;7748;52.474;13.454;2022-12-18T09:01:47;103148.50;;;-4.51;100.00
15294;BME280;7748;52.474;13.454;2022-12-18T09:04:16;103152.16;;;-4.49;100.00
15294;BME280;7748;52.474;13.454;2022-12-18T09:06:44;103152.88;;;-4.37;100.00
15294;BME280;7748;52.474;13.454;2022-12-18T09:09:12;103144.06;;;-4.33;100.00
15294;BME280;7748;52.474;13.454;2022-12-18T09:11:41;103146.31;;;-4.29;100.00
15294;BME280;7748;52.474;13.454;2022-12-18T09:14:09;103156.84;;;-4.52;100.00
15294;BME280;7748;52.474;13.454;2022-12-18T09:16:38;103156.34;;;-4.24;100.00
15294;BME280;7748;52.474;13.454;2022-12-18T09:19:05;103154.13;;;-4.15;100.00
15294;BME280;7748;52.474;13.454;2022-12-18T09:21:34;103158.47;;;-4.14;100.00
15294;BME280;7748;52.474;13.454;2022-12-18T09:24:14;103156.22;;;-4.18;100.00
15294;BME280;7748;52.474;13.454;2022-12-18T09:26:44;103163.34;;;-4.15;100.00
15294;BME280;7748;52.474;13.454;2022-12-18T09:29:13;103159.28;;;-4.08;100.00
15294;BME280;7748;52.474;13.454;2022-12-18T09:31:42;103162.72;;;-3.94;100.00
15294;BME280;7748;52.474;13.454;2022-12-18T09:34:10;103162.00;;;-3.93;100.00
15294;BME280;7748;52.474;13.454;2022-12-18T09:36:38;103156.19;;;-3.92;100.00
15294;BME280;7748;52.474;13.454;2022-12-18T09:39:06;103157.53;;;-4.02;100.00
15294;BME280;7748;52.474;13.454;2022-12-18T09:41:40;103153.78;;;-3.85;100.00
15294;BME280;7748;52.474;13.454;2022-12-18T09:44:17;103146.16;;;-3.85;100.00
15294;BME280;7748;52.474;13.454;2022-12-18T09:46:51;103122.22;;;-3.67;100.00
15294;BME280;7748;52.474;13.454;2022-12-18T09:49:23;103127.13;;;-3.69;100.00
15294;BME280;7748;52.474;13.454;2022-12-18T09:51:56;103130.34;;;-3.90;100.00
15294;BME280;7748;52.474;13.454;2022-12-18T09:54:29;103136.69;;;-3.86;100.00
15294;BME280;7748;52.474;13.454;2022-12-18T09:56:59;103124.50;;;-3.76;100.00
15294;BME280;7748;52.474;13.454;2022-12-18T09:59:33;103119.91;;;-3.78;100.00
15294;BME280;7748;52.474;13.454;2022-12-18T10:02:14;103101.44;;;-3.77;100.00
15294;BME280;7748;52.474;13.454;2022-12-18T10:04:42;103097.13;;;-3.91;100.00
15294;BME280;7748;52.474;13.454;2022-12-18T10:07:14;103092.59;;;-3.74;100.00
15294;BME280;7748;52.474;13.454;2022-12-18T10:09:52;103086.63;;;-3.54;100.00
15294;BME280;7748;52.474;13.454;2022-12-18T10:12:26;103084.69;;;-3.50;100.00
15294;BME280;7748;52.474;13.454;2022-12-18T10:15:03;103086.50;;;-3.49;100.00
15294;BME280;7748;52.474;13.454;2022-12-18T10:17:38;103089.94;;;-3.48;100.00
15294;BME280;7748;52.474;13.454;2022-12-18T10:20:13;103086.81;;;-3.53;100.00
15294;BME280;7748;52.474;13.454;2022-12-18T10:22:50;103089.00;;;-3.36;100.00
15294;BME280;7748;52.474;13.454;2022-12-18T10:25:23;103084.53;;;-3.44;100.00
15294;BME280;7748;52.474;13.454;2022-12-18T10:27:56;103084.53;;;-3.44;100.00
15294;BME280;7748;52.474;13.454;2022-12-18T10:30:26;103080.00;;;-3.27;100.00
15294;BME280;7748;52.474;13.454;2022-12-18T10:33:00;103076.72;;;-3.26;100.00
15294;BME280;7748;52.474;13.454;2022-12-18T10:35:33;103076.72;;;-3.26;100.00
15294;BME280;7748;52.474;13.454;2022-12-18T10:38:21;103072.19;;;-3.28;100.00
15294;BME280;7748;52.474;13.454;2022-12-18T10:40:51;103065.88;;;-3.25;100.00
15294;BME280;7748;52.474;13.454;2022-12-18T10:43:21;103070.09;;;-3.38;100.00
15294;BME280;7748;52.474;13.454;2022-12-18T10:46:03;103063.63;;;-3.69;100.00
15294;BME280;7748;52.474;13.454;2022-12-18T10:48:36;103058.63;;;-3.62;100.00
15294;BME280;7748;52.474;13.454;2022-12-18T10:51:08;103055.13;;;-3.29;100.00
15294;BME280;7748;52.474;13.454;2022-12-18T10:53:40;103058.41;;;-3.03;100.00
15294;BME280;7748;52.474;13.454;2022-12-18T10:56:10;103055.00;;;-2.97;100.00
15294;BME280;7748;52.474;13.454;2022-12-18T10:58:38;103055.50;;;-3.06;100.00
15294;BME280;7748;52.474;13.454;2022-12-18T11:01:11;103047.72;;;-3.01;100.00
15294;BME280;7748;52.474;13.454;2022-12-18T11:03:41;103044.59;;;-3.05;100.00
15294;BME280;7748;52.474;13.454;2022-12-18T11:06:12;103040.25;;;-3.06;100.00
15294;BME280;7748;52.474;13.454;2022-12-18T11:08:41;103037.44;;;-2.88;100.00
15294;BME280;7748;52.474;13.454;2022-12-18T11:11:19;103043.19;;;-2.96;100.00
15294;BME280;7748;52.474;13.454;2022-12-18T11:14:00;103045.16;;;-3.01;100.00
15294;BME280;7748;52.474;13.454;2022-12-18T11:16:36;103037.81;;;-3.12;100.00
15294;BME280;7748;52.474;13.454;2022-12-18T11:19:14;103038.03;;;-3.30;100.00
15294;BME280;7748;52.474;13.454;2022-12-18T11:21:46;103040.78;;;-3.29;100.00
15294;BME280;7748;52.474;13.454;2022-12-18T11:24:20;103033.63;;;-3.11;100.00
15294;BME280;7748;52.474;13.454;2022-12-18T11:26:51;103037.59;;;-3.13;100.00
15294;BME280;7748;52.474;13.454;2022-12-18T11:29:31;103041.25;;;-3.11;100.00
15294;BME280;7748;52.474;13.454;2022-12-18T11:32:33;103038.28;;;-3.22;100.00
15294;BME280;7748;52.474;13.454;2022-12-18T11:35:12;103044.28;;;-3.21;100.00
15294;BME280;7748;52.474;13.454;2022-12-18T11:37:47;103056.66;;;-3.37;100.00
15294;BME280;7748;52.474;13.454;2022-12-18T11:40:24;103052.75;;;-3.28;100.00
15294;BME280;7748;52.474;13.454;2022-12-18T11:42:58;103044.69;;;-3.38;100.00
15294;BME280;7748;52.474;13.454;2022-12-18T11:45:30;103040.78;;;-3.29;100.00
15294;BME280;7748;52.474;13.454;2022-12-18T11:48:12;103044.59;;;-3.25;100.00
15294;BME280;7748;52.474;13.454;2022-12-18T11:50:47;103041.66;;;-3.08;100.00
15294;BME280;7748;52.474;13.454;2022-12-18T11:53:16;103051.69;;;-3.23;100.00
15294;BME280;7748;52.474;13.454;2022-12-18T11:56:05;103053.81;;;-3.13;100.00
15294;BME280;7748;52.474;13.454;2022-12-18T11:58:47;103065.31;;;-3.02;100.00
15294;BME280;7748;52.474;13.454;2022-12-18T12:01:29;103072.59;;;-2.98;100.00
15294;BME280;7748;52.474;13.454;2022-12-18T12:04:32;103064.97;;;-2.98;100.00
15294;BME280;7748;52.474;13.454;2022-12-18T12:07:18;103071.50;;;-3.00;100.00
15294;BME280;7748;52.474;13.454;2022-12-18T12:09:57;103063.16;;;-2.99;100.00
15294;BME280;7748;52.474;13.454;2022-12-18T12:12:36;103070.44;;;-2.95;100.00
15294;BME280;7748;52.474;13.454;2022-12-18T12:15:23;103078.78;;;-2.96;100.00
15294;BME280;7748;52.474;13.454;2022-12-18T12:18:01;103076.47;;;-2.94;100.00
15294;BME280;7748;52.474;13.454;2022-12-18T12:20:45;103075.56;;;-3.35;100.00
15294;BME280;7748;52.474;13.454;2022-12-18T12:23:22;103072.19;;;-3.08;100.00
15294;BME280;7748;52.474;13.454;2022-12-18T12:25:58;103069.31;;;-2.97;100.00
15294;BME280;7748;52.474;13.454;2022-12-18T12:31:29;103075.50;;;-2.75;100.00
15294;BME280;7748;52.474;13.454;2022-12-18T12:34:07;103086.16;;;-2.85;100.00
15294;BME280;7748;52.474;13.454;2022-12-18T12:36:46;103091.31;;;-2.70;100.00
15294;BME280;7748;52.474;13.454;2022-12-18T12:39:23;103093.81;;;-2.78;100.00
15294;BME280;7748;52.474;13.454;2022-12-18T12:41:52;103097.44;;;-2.83;100.00
15294;BME280;7748;52.474;13.454;2022-12-18T12:44:43;103084.66;;;-2.90;100.00
15294;BME280;7748;52.474;13.454;2022-12-18T12:47:23;103086.03;;;-2.99;100.00
15294;BME280;7748;52.474;13.454;2022-12-18T12:49:54;103098.72;;;-2.79;100.00
15294;BME280;7748;52.474;13.454;2022-12-18T12:52:29;103096.25;;;-2.65;100.00
15294;BME280;7748;52.474;13.454;2022-12-18T12:55:02;103082.63;;;-2.65;100.00
15294;BME280;7748;52.474;13.454;2022-12-18T12:57:41;103070.59;;;-3.01;100.00
15294;BME280;7748;52.474;13.454;2022-12-18T13:00:16;103056.69;;;-2.90;100.00
15294;BME280;7748;52.474;13.454;2022-12-18T13:02:51;103052.63;;;-2.95;100.00
15294;BME280;7748;52.474;13.454;2022-12-18T13:05:28;103043.53;;;-3.47;100.00
15294;BME280;7748;52.474;13.454;2022-12-18T13:08:01;103039.44;;;-3.12;100.00
15294;BME280;7748;52.474;13.454;2022-12-18T13:10:34;103046.06;;;-3.00;100.00